createdAt,value
2017-09-16T00:00:52.260Z,90.82
2017-09-16T00:03:27.060Z,91.21
2017-09-16T00:06:02.118Z,90.80
2017-09-16T00:08:36.911Z,90.97
2017-09-16T00:11:11.703Z,91.60
2017-09-16T00:13:46.444Z,91.78
2017-09-16T00:16:21.300Z,92.04
2017-09-16T00:18:56.024Z,92.32
2017-09-16T00:21:30.855Z,92.33
2017-09-16T00:24:05.754Z,92.44
2017-09-16T00:26:40.568Z,92.59
2017-09-16T00:29:15.682Z,92.75
2017-09-16T00:31:50.686Z,92.73
2017-09-16T00:34:26.337Z,92.89
2017-09-16T00:37:00.979Z,92.75
2017-09-16T00:39:35.824Z,92.39
2017-09-16T00:42:10.767Z,92.22
2017-09-16T00:44:45.582Z,92.11
2017-09-16T00:47:20.450Z,92.00
2017-09-16T00:49:55.097Z,91.94
2017-09-16T00:52:29.955Z,91.86
2017-09-16T00:55:04.759Z,92.00
2017-09-16T00:57:40.063Z,92.73
2017-09-16T01:00:15.679Z,93.29
2017-09-16T01:02:50.690Z,93.34
2017-09-16T01:05:25.786Z,93.30
2017-09-16T01:08:00.439Z,92.82
2017-09-16T01:10:35.567Z,92.75
2017-09-16T01:13:10.466Z,92.49
2017-09-16T01:15:44.956Z,92.31
2017-09-16T01:18:19.744Z,92.26
2017-09-16T01:20:54.678Z,92.07
2017-09-16T01:23:29.339Z,92.01
2017-09-16T01:26:04.586Z,92.26
2017-09-16T01:28:39.546Z,92.28
2017-09-16T01:31:15.238Z,92.24
2017-09-16T01:33:50.004Z,92.64
2017-09-16T01:36:24.877Z,92.97
2017-09-16T01:38:59.614Z,93.32
2017-09-16T01:41:34.531Z,93.12
2017-09-16T01:44:09.499Z,92.85
2017-09-16T01:46:44.788Z,92.98
2017-09-16T01:49:19.808Z,93.03
2017-09-16T01:51:54.619Z,92.67
2017-09-16T01:54:29.483Z,92.74
2017-09-16T01:57:04.406Z,93.04
2017-09-16T01:59:39.375Z,92.89
2017-09-16T02:02:14.194Z,92.91
2017-09-16T02:04:48.900Z,93.46
2017-09-16T02:07:24.039Z,93.83
2017-09-16T02:09:58.671Z,94.18
2017-09-16T02:12:33.458Z,94.51
2017-09-16T02:15:08.441Z,94.74
2017-09-16T02:17:43.197Z,94.59
2017-09-16T02:20:18.011Z,94.10
2017-09-16T02:22:52.898Z,93.92
2017-09-16T02:25:27.648Z,94.33
2017-09-16T02:28:02.487Z,94.45
2017-09-16T02:30:37.128Z,94.38
2017-09-16T02:33:11.911Z,94.90
2017-09-16T02:35:46.878Z,95.11
2017-09-16T02:38:21.671Z,95.32
2017-09-16T02:40:56.531Z,95.12
2017-09-16T02:43:31.322Z,94.75
2017-09-16T02:46:06.236Z,94.60
2017-09-16T02:48:41.148Z,94.21
2017-09-16T02:51:16.047Z,94.60
2017-09-16T02:53:50.952Z,94.57
2017-09-16T02:56:25.952Z,94.85
2017-09-16T02:59:00.686Z,94.78
2017-09-16T03:01:35.379Z,94.97
2017-09-16T03:04:10.326Z,94.87
2017-09-16T03:06:45.082Z,95.13
2017-09-16T03:09:19.705Z,96.07
2017-09-16T03:11:54.570Z,96.00
2017-09-16T03:14:29.372Z,95.87
2017-09-16T03:17:04.172Z,95.66
2017-09-16T03:19:39.062Z,95.50
2017-09-16T03:22:13.947Z,94.71
2017-09-16T03:24:48.764Z,94.44
2017-09-16T03:27:24.095Z,94.47
2017-09-16T03:29:59.347Z,95.12
2017-09-16T03:32:34.414Z,95.38
2017-09-16T03:35:09.566Z,95.22
2017-09-16T03:37:45.503Z,94.87
2017-09-16T03:40:20.112Z,94.59
2017-09-16T03:42:54.907Z,94.71
2017-09-16T03:45:29.712Z,94.30
2017-09-16T03:48:04.541Z,94.27
2017-09-16T03:50:39.347Z,94.48
2017-09-16T03:53:14.103Z,94.65
2017-09-16T03:55:49.021Z,94.76
2017-09-16T03:58:23.947Z,94.30
2017-09-16T04:00:58.785Z,93.97
2017-09-16T04:03:33.971Z,93.76
2017-09-16T04:06:08.814Z,93.81
2017-09-16T04:08:43.543Z,93.74
2017-09-16T04:11:18.530Z,94.16
2017-09-16T04:13:53.345Z,93.97
2017-09-16T04:16:28.048Z,93.96
2017-09-16T04:19:02.903Z,93.70
2017-09-16T04:21:37.731Z,94.18
2017-09-16T04:24:12.577Z,93.98
2017-09-16T04:26:47.393Z,93.82
2017-09-16T04:29:22.297Z,94.09
2017-09-16T04:31:57.068Z,94.01
2017-09-16T04:34:32.390Z,93.98
2017-09-16T04:37:07.374Z,93.89
2017-09-16T04:39:42.221Z,94.22
2017-09-16T04:42:16.418Z,94.00
2017-09-16T04:44:51.535Z,94.03
2017-09-16T04:47:26.591Z,94.01
2017-09-16T04:50:01.302Z,94.14
2017-09-16T04:52:36.124Z,93.87
2017-09-16T04:55:11.284Z,93.78
2017-09-16T04:57:46.199Z,93.75
2017-09-16T05:00:21.116Z,93.74
2017-09-16T05:02:55.910Z,93.69
2017-09-16T05:05:30.824Z,93.73
2017-09-16T05:08:05.947Z,93.67
2017-09-16T05:10:40.924Z,93.98
2017-09-16T05:13:15.828Z,93.73
2017-09-16T05:15:50.950Z,93.63
2017-09-16T05:18:25.774Z,93.69
2017-09-16T05:21:00.604Z,93.71
2017-09-16T05:23:35.463Z,93.94
2017-09-16T05:26:11.461Z,93.72
2017-09-16T05:28:46.331Z,94.16
2017-09-16T05:31:21.083Z,94.73
2017-09-16T05:33:55.987Z,94.26
2017-09-16T05:36:30.536Z,94.25
2017-09-16T05:39:05.325Z,94.59
2017-09-16T05:41:40.466Z,94.53
2017-09-16T05:44:15.204Z,94.41
2017-09-16T05:46:50.132Z,94.30
2017-09-16T05:49:25.184Z,93.31
2017-09-16T05:52:00.111Z,92.95
2017-09-16T05:54:35.072Z,92.56
2017-09-16T05:57:09.543Z,92.17
2017-09-16T05:59:44.619Z,92.75
2017-09-16T06:02:19.505Z,92.73
2017-09-16T06:04:54.346Z,92.43
2017-09-16T06:07:29.360Z,92.20
2017-09-16T06:10:03.620Z,92.07
2017-09-16T06:12:38.647Z,92.52
2017-09-16T06:15:13.568Z,92.08
2017-09-16T06:17:48.440Z,91.46
2017-09-16T06:20:23.252Z,91.83
2017-09-16T06:22:58.333Z,90.99
2017-09-16T06:25:33.206Z,90.73
2017-09-16T06:28:08.132Z,89.91
2017-09-16T06:30:42.867Z,90.20
2017-09-16T06:33:17.594Z,89.72
2017-09-16T06:35:52.324Z,89.65
2017-09-16T06:38:27.319Z,89.48
2017-09-16T06:41:02.123Z,89.25
2017-09-16T06:43:36.924Z,89.29
2017-09-16T06:46:11.656Z,89.82
2017-09-16T06:48:46.485Z,89.13
2017-09-16T06:51:22.090Z,88.78
2017-09-16T06:53:57.040Z,89.24
2017-09-16T06:56:32.175Z,89.01
2017-09-16T06:59:06.995Z,88.76
2017-09-16T07:01:41.839Z,89.25
2017-09-16T07:04:16.654Z,89.17
2017-09-16T07:06:51.283Z,89.49
2017-09-16T07:09:26.259Z,89.07
2017-09-16T07:12:01.267Z,89.05
2017-09-16T07:14:36.096Z,88.47
2017-09-16T07:17:10.987Z,88.42
2017-09-16T07:19:45.726Z,88.17
2017-09-16T07:22:21.326Z,88.59
2017-09-16T07:24:57.439Z,88.28
2017-09-16T07:27:32.300Z,87.33
2017-09-16T07:30:11.693Z,86.73
2017-09-16T07:32:47.223Z,86.50
2017-09-16T07:35:22.187Z,86.10
2017-09-16T07:37:57.403Z,85.37
2017-09-16T07:40:32.138Z,84.53
2017-09-16T07:43:07.031Z,84.26
2017-09-16T07:45:42.233Z,84.07
2017-09-16T07:48:16.767Z,84.00
2017-09-16T07:50:51.963Z,83.58
2017-09-16T07:53:26.715Z,84.19
2017-09-16T07:56:01.443Z,84.09
2017-09-16T07:58:36.508Z,83.87
2017-09-16T08:01:11.931Z,83.44
2017-09-16T08:03:47.256Z,83.78
2017-09-16T08:06:22.898Z,83.48
2017-09-16T08:08:57.983Z,84.12
2017-09-16T08:11:32.774Z,84.12
2017-09-16T08:14:08.119Z,84.02
2017-09-16T08:16:43.346Z,84.10
2017-09-16T08:19:18.043Z,83.95
2017-09-16T08:21:52.718Z,84.10
2017-09-16T08:24:26.995Z,83.81
2017-09-16T08:27:02.060Z,82.55
2017-09-16T08:29:36.861Z,83.40
2017-09-16T08:32:11.521Z,83.04
2017-09-16T08:34:46.371Z,83.55
2017-09-16T08:37:21.385Z,83.64
2017-09-16T08:39:56.196Z,83.60
2017-09-16T08:42:31.836Z,84.37
2017-09-16T08:45:06.717Z,84.18
2017-09-16T08:47:41.543Z,83.60
2017-09-16T08:50:16.395Z,83.09
2017-09-16T08:52:51.007Z,83.37
2017-09-16T08:55:25.924Z,82.90
2017-09-16T08:58:00.614Z,82.86
2017-09-16T09:00:34.888Z,82.65
2017-09-16T09:03:09.903Z,82.88
2017-09-16T09:05:44.667Z,82.16
2017-09-16T09:08:19.511Z,81.52
2017-09-16T09:10:54.280Z,81.34
2017-09-16T09:13:28.914Z,81.54
2017-09-16T09:16:03.599Z,81.37
2017-09-16T09:18:38.491Z,81.41
2017-09-16T09:21:13.208Z,81.27
2017-09-16T09:23:48.648Z,80.57
2017-09-16T09:26:23.358Z,81.24
2017-09-16T09:28:58.012Z,80.23
2017-09-16T09:31:33.237Z,79.64
2017-09-16T09:34:07.870Z,79.76
2017-09-16T09:36:42.555Z,80.16
2017-09-16T09:39:17.161Z,80.31
2017-09-16T09:41:51.676Z,80.21
2017-09-16T09:44:26.582Z,78.93
2017-09-16T09:47:02.334Z,78.42
2017-09-16T09:49:37.251Z,78.47
2017-09-16T09:52:11.755Z,78.88
2017-09-16T09:54:46.559Z,78.74
2017-09-16T09:57:21.361Z,79.01
2017-09-16T09:59:56.388Z,78.70
2017-09-16T10:02:31.154Z,78.48
2017-09-16T10:05:05.700Z,78.94
2017-09-16T10:07:40.379Z,78.09
2017-09-16T10:10:15.140Z,78.05
2017-09-16T10:12:49.721Z,78.06
2017-09-16T10:15:24.528Z,77.96
2017-09-16T10:17:59.256Z,77.39
2017-09-16T10:20:33.966Z,77.24
2017-09-16T10:23:08.567Z,76.76
2017-09-16T10:25:43.313Z,75.96
2017-09-16T10:28:32.506Z,75.44
2017-09-16T10:31:07.004Z,75.28
2017-09-16T10:33:41.926Z,76.03
2017-09-16T10:36:16.802Z,75.54
2017-09-16T10:38:51.516Z,75.76
2017-09-16T10:41:26.418Z,74.82
2017-09-16T10:44:02.184Z,72.82
2017-09-16T10:46:37.121Z,73.31
2017-09-16T10:49:11.828Z,74.21
2017-09-16T10:51:46.622Z,73.50
2017-09-16T10:54:21.550Z,73.40
2017-09-16T10:56:56.408Z,73.36
2017-09-16T10:59:31.268Z,73.32
2017-09-16T11:02:06.269Z,74.32
2017-09-16T11:04:40.972Z,73.75
2017-09-16T11:07:16.204Z,73.81
2017-09-16T11:09:50.608Z,71.83
2017-09-16T11:12:25.555Z,71.33
2017-09-16T11:15:00.474Z,72.15
2017-09-16T11:17:35.512Z,71.53
2017-09-16T11:26:29.919Z,71.52
2017-09-16T11:29:05.256Z,71.65
2017-09-16T11:31:40.104Z,72.00
2017-09-16T11:34:14.812Z,72.16
2017-09-16T11:36:49.941Z,72.40
2017-09-16T11:39:24.592Z,70.87
2017-09-16T11:41:59.340Z,71.78
2017-09-16T11:44:34.145Z,71.47
2017-09-16T11:47:09.880Z,70.55
2017-09-16T11:49:45.459Z,69.88
2017-09-16T11:52:20.187Z,69.75
2017-09-16T11:54:54.832Z,69.75
2017-09-16T11:57:29.820Z,69.97
2017-09-16T12:00:04.436Z,68.49
2017-09-16T12:02:39.259Z,66.45
2017-09-16T12:05:14.099Z,64.19
2017-09-16T12:07:48.895Z,64.01
2017-09-16T12:10:23.560Z,65.26
2017-09-16T12:12:58.200Z,64.04
2017-09-16T12:15:32.928Z,64.26
2017-09-16T12:18:07.646Z,64.34
2017-09-16T12:20:42.345Z,64.20
2017-09-16T12:23:17.163Z,66.50
2017-09-16T12:25:51.678Z,65.28
2017-09-16T12:28:26.306Z,65.78
2017-09-16T12:31:01.064Z,66.58
2017-09-16T12:33:35.836Z,67.06
2017-09-16T12:36:10.487Z,67.51
2017-09-16T12:38:45.232Z,66.50
2017-09-16T12:41:20.007Z,67.00
2017-09-16T12:43:54.908Z,66.54
2017-09-16T12:46:29.704Z,66.76
2017-09-16T12:49:04.448Z,65.80
2017-09-16T12:51:39.204Z,65.09
2017-09-16T12:54:13.752Z,65.62
2017-09-16T12:56:48.426Z,65.28
2017-09-16T12:59:23.136Z,65.64
2017-09-16T13:01:57.673Z,65.84
2017-09-16T13:04:32.445Z,66.68
2017-09-16T13:07:08.922Z,67.04
2017-09-16T13:09:43.673Z,66.15
2017-09-16T13:12:18.297Z,66.07
2017-09-16T13:14:53.025Z,65.49
2017-09-16T13:17:28.667Z,65.61
2017-09-16T13:20:03.352Z,66.00
2017-09-16T13:22:37.991Z,65.24
2017-09-16T13:25:12.711Z,65.52
2017-09-16T13:27:47.468Z,65.46
2017-09-16T13:30:22.075Z,66.14
2017-09-16T13:32:56.873Z,66.61
2017-09-16T13:35:31.481Z,66.86
2017-09-16T13:38:06.320Z,66.92
2017-09-16T13:40:40.731Z,65.31
2017-09-16T13:43:15.451Z,64.98
2017-09-16T13:45:50.164Z,65.26
2017-09-16T13:48:24.981Z,65.50
2017-09-16T13:50:59.402Z,64.16
2017-09-16T13:53:33.942Z,64.88
2017-09-16T13:56:08.670Z,64.51
2017-09-16T13:58:43.304Z,65.84
2017-09-16T14:01:18.141Z,67.50
2017-09-16T14:03:52.936Z,66.51
2017-09-16T14:06:27.700Z,66.75
2017-09-16T14:09:02.881Z,68.36
2017-09-16T14:11:38.947Z,70.62
2017-09-16T14:14:13.615Z,71.85
2017-09-16T14:16:48.456Z,70.23
2017-09-16T14:19:23.171Z,70.55
2017-09-16T14:21:58.724Z,69.10
2017-09-16T14:24:33.330Z,69.81
2017-09-16T14:27:07.976Z,69.64
2017-09-16T14:29:42.558Z,69.16
2017-09-16T14:32:17.164Z,68.68
2017-09-16T14:34:52.142Z,67.83
2017-09-16T14:37:27.864Z,67.13
2017-09-16T14:40:03.032Z,67.71
2017-09-16T14:42:37.851Z,67.38
2017-09-16T14:45:13.216Z,66.00
2017-09-16T14:47:48.035Z,67.73
2017-09-16T14:50:23.071Z,66.19
2017-09-16T14:52:58.084Z,68.18
2017-09-16T14:55:33.352Z,68.27
2017-09-16T14:58:08.094Z,67.60
2017-09-16T15:00:42.600Z,67.49
2017-09-16T15:03:17.749Z,67.83
2017-09-16T15:05:52.704Z,67.62
2017-09-16T15:08:27.269Z,68.45
2017-09-16T15:11:01.997Z,68.54
2017-09-16T15:13:37.211Z,67.41
2017-09-16T15:16:11.808Z,65.52
2017-09-16T15:18:46.624Z,65.24
2017-09-16T15:21:21.674Z,65.78
2017-09-16T15:23:56.386Z,66.18
2017-09-16T15:26:31.104Z,64.70
2017-09-16T15:29:05.961Z,64.77
2017-09-16T15:31:40.832Z,64.92
2017-09-16T15:34:15.388Z,65.29
2017-09-16T15:36:50.169Z,65.68
2017-09-16T15:39:24.891Z,65.61
2017-09-16T15:41:59.880Z,65.31
2017-09-16T15:44:35.184Z,65.12
2017-09-16T15:47:10.103Z,64.20
2017-09-16T15:49:45.020Z,63.80
2017-09-16T15:52:19.755Z,64.31
2017-09-16T15:54:54.587Z,63.69
2017-09-16T15:57:29.660Z,63.27
2017-09-16T16:00:04.924Z,64.38
2017-09-16T16:02:39.499Z,64.99
2017-09-16T16:05:14.394Z,64.83
2017-09-16T16:07:50.000Z,64.46
2017-09-16T16:10:25.098Z,64.94
2017-09-16T16:13:00.023Z,63.96
2017-09-16T16:15:34.955Z,62.90
2017-09-16T16:18:09.780Z,63.30
2017-09-16T16:20:44.667Z,63.49
2017-09-16T16:23:19.448Z,63.75
2017-09-16T16:25:54.232Z,64.29
2017-09-16T16:28:31.959Z,64.83
2017-09-16T16:31:06.796Z,65.63
2017-09-16T16:33:41.764Z,66.27
2017-09-16T16:36:16.497Z,66.15
2017-09-16T16:38:51.268Z,66.27
2017-09-16T16:41:25.952Z,66.35
2017-09-16T16:44:00.810Z,65.88
2017-09-16T16:46:35.494Z,66.27
2017-09-16T16:49:10.152Z,66.52
2017-09-16T16:51:45.395Z,66.71
2017-09-16T16:54:20.336Z,66.94
2017-09-16T16:56:55.344Z,66.95
2017-09-16T16:59:30.299Z,66.83
2017-09-16T17:02:05.519Z,66.78
2017-09-16T17:04:40.553Z,66.96
2017-09-16T17:07:15.880Z,67.23
2017-09-16T17:09:50.727Z,67.36
2017-09-16T17:12:25.475Z,67.79
2017-09-16T17:15:00.197Z,68.11
2017-09-16T17:17:35.128Z,68.54
2017-09-16T17:20:09.970Z,69.25
2017-09-16T17:22:44.980Z,69.69
2017-09-16T17:25:20.198Z,70.21
2017-09-16T17:27:54.988Z,70.33
2017-09-16T17:30:29.788Z,70.35
2017-09-16T17:33:04.714Z,70.63
2017-09-16T17:35:39.564Z,70.86
2017-09-16T17:38:14.375Z,71.29
2017-09-16T17:40:49.028Z,71.67
2017-09-16T17:43:23.728Z,72.29
2017-09-16T17:45:58.355Z,72.58
2017-09-16T17:48:33.267Z,73.65
2017-09-16T17:51:08.008Z,74.70
2017-09-16T17:53:42.637Z,75.40
2017-09-16T17:56:18.250Z,76.41
2017-09-16T17:58:52.855Z,77.08
2017-09-16T18:01:28.336Z,77.25
2017-09-16T18:04:03.036Z,77.89
2017-09-16T18:06:37.404Z,77.62
2017-09-16T18:09:11.787Z,77.82
2017-09-16T18:11:46.605Z,78.11
2017-09-16T18:14:21.339Z,78.12
2017-09-16T18:16:56.411Z,78.25
2017-09-16T18:19:31.350Z,78.25
2017-09-16T18:22:06.255Z,78.08
2017-09-16T18:24:40.794Z,77.56
2017-09-16T18:27:15.492Z,77.53
2017-09-16T18:29:50.396Z,77.77
2017-09-16T18:32:25.877Z,77.95
2017-09-16T18:35:00.622Z,78.55
2017-09-16T18:37:35.295Z,79.20
2017-09-16T18:40:10.034Z,79.56
2017-09-16T18:42:45.559Z,79.83
2017-09-16T18:45:20.581Z,80.84
2017-09-16T18:47:55.408Z,81.31
2017-09-16T18:50:30.032Z,82.37
2017-09-16T18:53:04.647Z,82.37
2017-09-16T18:55:39.508Z,82.54
2017-09-16T18:58:14.432Z,82.56
2017-09-16T19:00:49.453Z,82.25
2017-09-16T19:03:24.272Z,82.03
2017-09-16T19:05:59.332Z,81.86
2017-09-16T19:08:34.259Z,81.90
2017-09-16T19:11:09.008Z,81.97
2017-09-16T19:13:44.106Z,82.02
2017-09-16T19:16:18.830Z,82.27
2017-09-16T19:18:53.568Z,82.33
2017-09-16T19:21:28.224Z,82.44
2017-09-16T19:24:02.739Z,82.75
2017-09-16T19:26:37.410Z,82.72
2017-09-16T19:29:11.935Z,82.59
2017-09-16T19:31:46.434Z,82.50
2017-09-16T19:34:21.310Z,83.10
2017-09-16T19:36:56.062Z,83.52
2017-09-16T19:39:31.603Z,83.84
2017-09-16T19:42:06.546Z,84.36
2017-09-16T19:44:41.360Z,84.63
2017-09-16T19:47:16.201Z,84.40
2017-09-16T19:49:50.935Z,84.47
2017-09-16T19:52:25.757Z,84.64
2017-09-16T19:55:00.332Z,84.88
2017-09-16T19:57:35.429Z,85.49
2017-09-16T20:00:09.500Z,85.95
2017-09-16T20:02:44.694Z,85.65
2017-09-16T20:05:19.578Z,85.16
2017-09-16T20:07:54.585Z,85.24
2017-09-16T20:10:29.500Z,85.32
2017-09-16T20:13:04.487Z,85.21
2017-09-16T20:15:38.928Z,85.08
2017-09-16T20:18:14.010Z,85.17
2017-09-16T20:20:48.926Z,85.84
2017-09-16T20:23:23.723Z,86.46
2017-09-16T20:25:58.593Z,85.96
2017-09-16T20:28:33.317Z,85.75
2017-09-16T20:31:08.352Z,85.87
2017-09-16T20:33:43.036Z,86.62
2017-09-16T20:36:17.800Z,87.12
2017-09-16T20:38:52.518Z,86.91
2017-09-16T20:41:27.342Z,86.65
2017-09-16T20:44:02.163Z,87.20
2017-09-16T20:46:37.290Z,87.38
2017-09-16T20:49:11.986Z,87.06
2017-09-16T20:51:46.671Z,87.63
2017-09-16T20:54:21.268Z,87.36
2017-09-16T20:56:56.211Z,84.31
2017-09-16T20:59:31.327Z,80.76
2017-09-16T21:02:06.545Z,78.95
2017-09-16T21:04:41.587Z,77.72
2017-09-16T21:07:16.262Z,77.41
2017-09-16T21:09:50.968Z,75.78
2017-09-16T21:12:25.574Z,74.25
2017-09-16T21:15:00.457Z,73.39
2017-09-16T21:17:35.256Z,72.72
2017-09-16T21:20:10.244Z,73.15
2017-09-16T21:22:45.240Z,72.88
2017-09-16T21:25:20.052Z,72.62
2017-09-16T21:27:54.974Z,72.95
2017-09-16T21:30:29.310Z,72.75
2017-09-16T21:33:04.304Z,72.35
2017-09-16T21:35:38.910Z,72.03
2017-09-16T21:38:13.347Z,71.85
2017-09-16T21:40:48.443Z,71.95
2017-09-16T21:43:23.191Z,72.28
2017-09-16T21:45:57.997Z,73.04
2017-09-16T21:48:32.647Z,74.13
2017-09-16T21:51:07.559Z,72.96
2017-09-16T21:53:42.248Z,71.61
2017-09-16T21:56:17.158Z,73.09
2017-09-16T21:58:51.955Z,74.93
2017-09-16T22:01:26.667Z,77.29
2017-09-16T22:04:01.931Z,78.58
2017-09-16T22:06:36.627Z,80.39
2017-09-16T22:09:11.568Z,81.27
2017-09-16T22:11:46.244Z,81.70
2017-09-16T22:14:21.679Z,82.21
2017-09-16T22:16:56.492Z,82.65
2017-09-16T22:19:30.911Z,83.49
2017-09-16T22:22:05.731Z,83.56
2017-09-16T22:24:41.452Z,83.59
2017-09-16T22:27:16.653Z,84.28
2017-09-16T22:29:51.447Z,84.77
2017-09-16T22:32:27.055Z,84.88
2017-09-16T22:35:02.078Z,84.73
2017-09-16T22:37:36.809Z,85.58
2017-09-16T22:40:11.525Z,85.69
2017-09-16T22:42:46.331Z,86.17
2017-09-16T22:45:21.067Z,86.16
2017-09-16T22:47:55.995Z,86.43
2017-09-16T22:50:30.804Z,86.16
2017-09-16T22:53:05.622Z,85.97
2017-09-16T22:55:40.603Z,85.82
2017-09-16T22:58:15.433Z,85.43
2017-09-16T23:00:50.800Z,85.53
2017-09-16T23:03:25.786Z,85.71
2017-09-16T23:06:01.761Z,85.77
2017-09-16T23:08:36.799Z,85.75
2017-09-16T23:11:11.703Z,85.80
2017-09-16T23:13:46.631Z,86.05
2017-09-16T23:16:21.844Z,86.09
2017-09-16T23:18:56.563Z,86.04
2017-09-16T23:21:31.796Z,87.39
2017-09-16T23:24:06.704Z,87.24
2017-09-16T23:26:41.451Z,86.92
2017-09-16T23:29:16.207Z,86.55
2017-09-16T23:31:51.294Z,85.85
2017-09-16T23:34:26.145Z,85.60
2017-09-16T23:37:00.878Z,85.56
2017-09-16T23:39:35.892Z,85.51
2017-09-16T23:42:10.733Z,85.58
2017-09-16T23:44:45.418Z,85.88
2017-09-16T23:47:20.628Z,86.39
2017-09-16T23:49:55.552Z,86.65
2017-09-16T23:52:30.425Z,87.15
2017-09-16T23:55:05.163Z,87.33
2017-09-16T23:57:40.219Z,88.32
